Pagina principale
METAR-TAF:

METAR-TAF

Aeroporti :

Aeroporto di Bujumbura

Bujumbura, Burundi

latitudine: 03-19S, longitudine: 029-19E, altezza: 782 m

METAR: mancante

Ora: 11:14 (09:14 UTC)

Previsione

Il bollettino è stato emesso 4 ore e 14 minuti fa, alle 05:00 UTC
Previsione valida dal 07 alle 06 UTC al 08 alle 12 UTC
Vento 6 kt da sud con raffiche fino a 20 kt
Visibilità 10 km o più
Poco nuvoloso ad un'altezza di 3000 ft
Evoluzione graduale
dal 07 alle 19 UTC al 07 alle 21 UTC
Vento kt da nord
Evoluzione graduale
dal 08 alle 02 UTC al 08 alle 04 UTC
Vento 4 kt da nord
Evoluzione graduale
dal 08 alle 08 UTC al 08 alle 10 UTC
Vento 8 kt da sud con raffiche fino a 20 kt

TAF: HBBA 070500Z 0706/0812 36003KT 9999 FEW030 BECMG0708/0710 18006G20KT BECMG 0719/0721 00000KT BECMG 0802/0804 36004KT BECMG 0808/0810 18008G20KT

Osservazioni e previsioni meteorologiche di più di 4000 aeroporti (messaggi METAR e TAF).

Le stazioni disponibili sono rappresentate dai dischi gialli e rossi sulla carta.

Puntare il mouse per vedere il nome della stazione.

Clicca sopra per visualizzare le osservazioni e previsioni meteorologiche.

Per cambiare la mappa : fare clic sui pulsanti verdi con una croce nera per ingrandire, il pulsante verde con un trattino per diminuire, o sulla freccia verde per le mappe adiacenti.


METAR-TAF: